Warning: Javascript must be enabled to use all the features on this page!


Page Loading - Please Wait...

Click to hideNews Bulletins

Peak Streamflow for the Nation

USGS 10336698 THIRD CK NR CRYSTAL BAY, NV

Washoe County, Nevada
Hydrologic Unit Code 16050101
Latitude  39°14'26", Longitude 119°56'44" NAD27
Drainage area 6.05  square miles
Gage datum 6,234.03 feet above NGVD29
Output formats
Table
Graph
Tab-separated file
peakfq (watstore) format
Reselect output format
Water
Year
Date Gage
Height
(feet)
Stream-
flow
(cfs)
1970 1970-06-02 3.09 65.0
1971 1971-06-26 3.17 110
1972 1972-05-29 2.64 34.0
1973 1973-05-16 2.992 80.0
1975 1975-06-16 3.042 80.0
1978 1978-05-23 2.84 62.0
1979 1979-05-27 2.90 66.0
1980 1980-07-01 2.93 74.0
1981 1981-05-01 2.41 24.0
1982 1982-06-18 3.40 150
1983 1983-07-06 3.23 86.0
1984 1984-05-30 3.03 78.0
1985 1985-04-13 2.60 37.0
1986 1986-06-14 3.33 140
1987 1987-05-31 2.60 31.0
1988 1988-04-06 2.21 9.90
1989 1989-05-08 2.73 43.0
1990 1990-07-16 2.43 20.0
1991 1991-08-15 2.80 63.0
1992 1992-07-14 2.47 23.0
1993 1993-05-25 2.91 67.0
1994 1994-05-11 2.462 21.0
1995 1995-06-26 3.31 122
1996 1996-05-16 3.28 116
1997 1997-01-02 3.24 108
1998 1998-06-12 3.05 83.0
1999 1999-05-25 2.94 63.0
2000 2000-05-23 3.14 90.0
2001 2001-05-08 2.63 20.0
2002 2002-05-30 2.732 38.0
2003 2003-05-29 2.85 52.0
2004 2004-05-04 2.602 29.0
2005 2005-05-23 3.07 136
2006 2006-06-06 3.16 160
2007 2007-05-10 2.34 17.0
2008 2008-05-18 2.63 43.0
2009 2009-05-18 2.682 42.0
2010 2010-06-06 3.10 87.0
2011 2011-06-28 3.24 112
2012 2012-05-16 2.752 43.0
2013 2013-04-29 2.622 29.0
2014 2014-04-17 2.30 12.0
2015 2015-05-30 2.29 13.0
2016 2016-06-03 2.71 42.0
2017 2017-06-20 3.68 241
2018 2018-04-07 2.63 37.72
2019 2019-06-18   1452
2020 2020-04-29 2.57 29.0
?
  Peak Gage-Height Qualification Codes.
?
  Peak Streamflow Qualification Codes.